sensor_id;sensor_type;location;lat;lon;timestamp;P1;durP1;ratioP1;P2;durP2;ratioP2
22778;SDS011;11556;51.194;3.800;2023-11-19T00:01:52;18.77;;;4.95;;
22778;SDS011;11556;51.194;3.800;2023-11-19T00:04:18;23.15;;;5.13;;
22778;SDS011;11556;51.194;3.800;2023-11-19T00:06:44;17.45;;;4.90;;
22778;SDS011;11556;51.194;3.800;2023-11-19T00:09:09;21.83;;;4.50;;
22778;SDS011;11556;51.194;3.800;2023-11-19T00:11:35;26.67;;;4.53;;
22778;SDS011;11556;51.194;3.800;2023-11-19T00:14:01;30.58;;;4.28;;
22778;SDS011;11556;51.194;3.800;2023-11-19T00:16:26;27.27;;;4.25;;
22778;SDS011;11556;51.194;3.800;2023-11-19T00:18:53;25.38;;;4.03;;
22778;SDS011;11556;51.194;3.800;2023-11-19T00:21:18;25.33;;;4.20;;
22778;SDS011;11556;51.194;3.800;2023-11-19T00:23:44;31.40;;;4.47;;
22778;SDS011;11556;51.194;3.800;2023-11-19T00:26:09;30.45;;;4.82;;
22778;SDS011;11556;51.194;3.800;2023-11-19T00:28:35;30.15;;;4.90;;
22778;SDS011;11556;51.194;3.800;2023-11-19T00:31:03;28.23;;;4.75;;
22778;SDS011;11556;51.194;3.800;2023-11-19T00:33:29;31.80;;;4.63;;
22778;SDS011;11556;51.194;3.800;2023-11-19T00:35:56;35.20;;;4.57;;
22778;SDS011;11556;51.194;3.800;2023-11-19T00:38:21;36.30;;;5.20;;
22778;SDS011;11556;51.194;3.800;2023-11-19T00:40:47;30.90;;;4.78;;
22778;SDS011;11556;51.194;3.800;2023-11-19T00:43:13;29.23;;;4.78;;
22778;SDS011;11556;51.194;3.800;2023-11-19T00:45:38;32.30;;;4.90;;
22778;SDS011;11556;51.194;3.800;2023-11-19T00:48:04;46.45;;;5.65;;
22778;SDS011;11556;51.194;3.800;2023-11-19T00:50:30;37.88;;;5.28;;
22778;SDS011;11556;51.194;3.800;2023-11-19T00:52:56;40.38;;;5.55;;
22778;SDS011;11556;51.194;3.800;2023-11-19T00:55:21;42.17;;;5.30;;
22778;SDS011;11556;51.194;3.800;2023-11-19T00:57:47;51.22;;;5.35;;
22778;SDS011;11556;51.194;3.800;2023-11-19T01:00:13;47.63;;;6.03;;
22778;SDS011;11556;51.194;3.800;2023-11-19T01:02:44;45.38;;;5.32;;
22778;SDS011;11556;51.194;3.800;2023-11-19T01:05:10;50.17;;;6.43;;
22778;SDS011;11556;51.194;3.800;2023-11-19T01:07:39;41.17;;;5.35;;
22778;SDS011;11556;51.194;3.800;2023-11-19T01:10:05;65.65;;;7.30;;
22778;SDS011;11556;51.194;3.800;2023-11-19T01:12:32;51.58;;;6.85;;
22778;SDS011;11556;51.194;3.800;2023-11-19T01:14:58;54.15;;;6.97;;
22778;SDS011;11556;51.194;3.800;2023-11-19T01:17:23;48.17;;;6.10;;
22778;SDS011;11556;51.194;3.800;2023-11-19T01:19:49;43.63;;;5.90;;
22778;SDS011;11556;51.194;3.800;2023-11-19T01:22:15;42.40;;;5.32;;
22778;SDS011;11556;51.194;3.800;2023-11-19T01:24:41;46.60;;;5.40;;
22778;SDS011;11556;51.194;3.800;2023-11-19T01:27:06;46.08;;;5.45;;
22778;SDS011;11556;51.194;3.800;2023-11-19T01:29:32;42.70;;;5.60;;
22778;SDS011;11556;51.194;3.800;2023-11-19T01:31:58;40.78;;;5.57;;
22778;SDS011;11556;51.194;3.800;2023-11-19T01:34:23;43.35;;;4.60;;
22778;SDS011;11556;51.194;3.800;2023-11-19T01:36:49;50.28;;;6.22;;
22778;SDS011;11556;51.194;3.800;2023-11-19T01:39:15;48.67;;;5.40;;
22778;SDS011;11556;51.194;3.800;2023-11-19T01:41:45;56.33;;;6.38;;
22778;SDS011;11556;51.194;3.800;2023-11-19T01:44:10;46.47;;;5.68;;
22778;SDS011;11556;51.194;3.800;2023-11-19T01:46:40;55.78;;;6.00;;
22778;SDS011;11556;51.194;3.800;2023-11-19T01:49:07;49.05;;;5.97;;
22778;SDS011;11556;51.194;3.800;2023-11-19T01:51:33;54.08;;;7.38;;
22778;SDS011;11556;51.194;3.800;2023-11-19T01:53:59;48.42;;;6.65;;
22778;SDS011;11556;51.194;3.800;2023-11-19T01:56:26;59.63;;;6.78;;
22778;SDS011;11556;51.194;3.800;2023-11-19T01:58:52;47.13;;;5.88;;
22778;SDS011;11556;51.194;3.800;2023-11-19T02:01:20;52.53;;;7.13;;
22778;SDS011;11556;51.194;3.800;2023-11-19T02:03:46;50.22;;;6.30;;
22778;SDS011;11556;51.194;3.800;2023-11-19T02:06:12;51.47;;;6.50;;
22778;SDS011;11556;51.194;3.800;2023-11-19T02:08:38;43.33;;;6.13;;
22778;SDS011;11556;51.194;3.800;2023-11-19T02:11:04;51.22;;;6.50;;
22778;SDS011;11556;51.194;3.800;2023-11-19T02:13:32;49.10;;;5.78;;
22778;SDS011;11556;51.194;3.800;2023-11-19T02:15:58;44.78;;;5.68;;
22778;SDS011;11556;51.194;3.800;2023-11-19T02:18:26;47.13;;;5.95;;
22778;SDS011;11556;51.194;3.800;2023-11-19T02:20:58;41.50;;;6.05;;
22778;SDS011;11556;51.194;3.800;2023-11-19T02:23:26;44.92;;;5.93;;
22778;SDS011;11556;51.194;3.800;2023-11-19T02:26:00;47.17;;;6.30;;
22778;SDS011;11556;51.194;3.800;2023-11-19T02:28:39;45.13;;;5.85;;
22778;SDS011;11556;51.194;3.800;2023-11-19T02:31:07;43.90;;;5.28;;
22778;SDS011;11556;51.194;3.800;2023-11-19T02:33:36;49.95;;;6.22;;
22778;SDS011;11556;51.194;3.800;2023-11-19T02:36:05;41.10;;;5.72;;
22778;SDS011;11556;51.194;3.800;2023-11-19T02:38:35;38.10;;;5.90;;
22778;SDS011;11556;51.194;3.800;2023-11-19T02:41:04;41.70;;;5.88;;
22778;SDS011;11556;51.194;3.800;2023-11-19T02:43:31;40.15;;;6.13;;
22778;SDS011;11556;51.194;3.800;2023-11-19T02:45:59;43.70;;;6.32;;
22778;SDS011;11556;51.194;3.800;2023-11-19T02:48:26;35.60;;;6.30;;
22778;SDS011;11556;51.194;3.800;2023-11-19T02:50:51;32.90;;;4.93;;
22778;SDS011;11556;51.194;3.800;2023-11-19T02:53:17;47.55;;;5.97;;
22778;SDS011;11556;51.194;3.800;2023-11-19T02:55:46;42.42;;;5.97;;
22778;SDS011;11556;51.194;3.800;2023-11-19T02:58:14;33.05;;;5.00;;
22778;SDS011;11556;51.194;3.800;2023-11-19T03:00:53;36.92;;;5.10;;
22778;SDS011;11556;51.194;3.800;2023-11-19T03:03:34;42.97;;;5.67;;
22778;SDS011;11556;51.194;3.800;2023-11-19T03:06:06;45.03;;;5.90;;
22778;SDS011;11556;51.194;3.800;2023-11-19T03:08:35;40.55;;;5.35;;
22778;SDS011;11556;51.194;3.800;2023-11-19T03:11:01;38.30;;;5.35;;
22778;SDS011;11556;51.194;3.800;2023-11-19T03:13:27;41.50;;;6.05;;
22778;SDS011;11556;51.194;3.800;2023-11-19T03:15:52;42.22;;;5.45;;
22778;SDS011;11556;51.194;3.800;2023-11-19T03:18:20;38.62;;;5.06;;
22778;SDS011;11556;51.194;3.800;2023-11-19T03:20:46;42.75;;;5.45;;
22778;SDS011;11556;51.194;3.800;2023-11-19T03:23:12;37.38;;;5.43;;
22778;SDS011;11556;51.194;3.800;2023-11-19T03:25:38;44.22;;;5.25;;
22778;SDS011;11556;51.194;3.800;2023-11-19T03:28:03;35.05;;;5.57;;
22778;SDS011;11556;51.194;3.800;2023-11-19T03:30:30;49.88;;;5.75;;
22778;SDS011;11556;51.194;3.800;2023-11-19T03:32:56;45.60;;;4.95;;
22778;SDS011;11556;51.194;3.800;2023-11-19T03:35:25;51.05;;;6.50;;
22778;SDS011;11556;51.194;3.800;2023-11-19T03:37:50;42.55;;;4.97;;
22778;SDS011;11556;51.194;3.800;2023-11-19T03:40:16;49.70;;;6.65;;
22778;SDS011;11556;51.194;3.800;2023-11-19T03:42:43;45.67;;;6.03;;
22778;SDS011;11556;51.194;3.800;2023-11-19T03:45:12;55.22;;;6.72;;
22778;SDS011;11556;51.194;3.800;2023-11-19T03:47:38;39.95;;;5.80;;
22778;SDS011;11556;51.194;3.800;2023-11-19T03:50:04;45.88;;;6.15;;
22778;SDS011;11556;51.194;3.800;2023-11-19T03:52:31;47.40;;;5.88;;
22778;SDS011;11556;51.194;3.800;2023-11-19T03:54:56;43.13;;;5.97;;
22778;SDS011;11556;51.194;3.800;2023-11-19T03:57:22;51.13;;;5.75;;
22778;SDS011;11556;51.194;3.800;2023-11-19T03:59:48;47.45;;;6.45;;
22778;SDS011;11556;51.194;3.800;2023-11-19T04:02:15;38.78;;;5.70;;
22778;SDS011;11556;51.194;3.800;2023-11-19T04:04:41;40.05;;;5.60;;
22778;SDS011;11556;51.194;3.800;2023-11-19T04:07:07;47.75;;;6.35;;
22778;SDS011;11556;51.194;3.800;2023-11-19T04:09:32;41.60;;;6.95;;
22778;SDS011;11556;51.194;3.800;2023-11-19T04:11:58;40.88;;;5.95;;
22778;SDS011;11556;51.194;3.800;2023-11-19T04:14:25;52.45;;;6.53;;
22778;SDS011;11556;51.194;3.800;2023-11-19T04:16:51;41.22;;;6.03;;
22778;SDS011;11556;51.194;3.800;2023-11-19T04:19:17;47.60;;;5.18;;
22778;SDS011;11556;51.194;3.800;2023-11-19T04:21:43;44.85;;;6.40;;
22778;SDS011;11556;51.194;3.800;2023-11-19T04:24:09;46.80;;;5.63;;
22778;SDS011;11556;51.194;3.800;2023-11-19T04:26:46;47.88;;;5.80;;
22778;SDS011;11556;51.194;3.800;2023-11-19T04:29:12;38.53;;;5.07;;
22778;SDS011;11556;51.194;3.800;2023-11-19T04:31:39;45.50;;;6.03;;
22778;SDS011;11556;51.194;3.800;2023-11-19T04:34:05;46.97;;;6.20;;
22778;SDS011;11556;51.194;3.800;2023-11-19T04:36:31;45.65;;;5.10;;
22778;SDS011;11556;51.194;3.800;2023-11-19T04:39:00;41.53;;;5.63;;
22778;SDS011;11556;51.194;3.800;2023-11-19T04:41:26;39.45;;;5.95;;
22778;SDS011;11556;51.194;3.800;2023-11-19T04:43:55;43.58;;;5.85;;
22778;SDS011;11556;51.194;3.800;2023-11-19T04:46:20;36.72;;;5.82;;
22778;SDS011;11556;51.194;3.800;2023-11-19T04:48:46;47.20;;;5.85;;
22778;SDS011;11556;51.194;3.800;2023-11-19T04:51:12;46.78;;;6.20;;
22778;SDS011;11556;51.194;3.800;2023-11-19T04:53:38;47.50;;;5.97;;
22778;SDS011;11556;51.194;3.800;2023-11-19T04:56:09;40.55;;;6.20;;
22778;SDS011;11556;51.194;3.800;2023-11-19T05:01:02;45.40;;;5.25;;
22778;SDS011;11556;51.194;3.800;2023-11-19T05:03:28;38.63;;;5.35;;
22778;SDS011;11556;51.194;3.800;2023-11-19T05:05:54;47.65;;;6.60;;
22778;SDS011;11556;51.194;3.800;2023-11-19T05:08:20;42.88;;;6.50;;
22778;SDS011;11556;51.194;3.800;2023-11-19T05:10:45;35.00;;;4.82;;
22778;SDS011;11556;51.194;3.800;2023-11-19T05:15:50;48.75;;;5.63;;
22778;SDS011;11556;51.194;3.800;2023-11-19T05:18:15;35.15;;;5.60;;
22778;SDS011;11556;51.194;3.800;2023-11-19T05:20:41;45.30;;;6.10;;
22778;SDS011;11556;51.194;3.800;2023-11-19T05:23:07;44.40;;;6.20;;
22778;SDS011;11556;51.194;3.800;2023-11-19T05:25:33;44.75;;;5.22;;
22778;SDS011;11556;51.194;3.800;2023-11-19T05:27:58;45.47;;;5.70;;
22778;SDS011;11556;51.194;3.800;2023-11-19T05:30:24;38.33;;;5.03;;
22778;SDS011;11556;51.194;3.800;2023-11-19T05:32:50;36.45;;;4.85;;
22778;SDS011;11556;51.194;3.800;2023-11-19T05:35:15;41.55;;;5.28;;
22778;SDS011;11556;51.194;3.800;2023-11-19T05:37:41;39.13;;;5.45;;
22778;SDS011;11556;51.194;3.800;2023-11-19T05:40:07;38.78;;;5.35;;
22778;SDS011;11556;51.194;3.800;2023-11-19T05:45:05;52.05;;;6.20;;
22778;SDS011;11556;51.194;3.800;2023-11-19T05:47:32;41.53;;;6.22;;
22778;SDS011;11556;51.194;3.800;2023-11-19T05:49:58;39.60;;;5.20;;
22778;SDS011;11556;51.194;3.800;2023-11-19T05:52:24;38.38;;;5.75;;
22778;SDS011;11556;51.194;3.800;2023-11-19T05:54:49;43.67;;;5.88;;
22778;SDS011;11556;51.194;3.800;2023-11-19T05:57:17;38.88;;;5.18;;
22778;SDS011;11556;51.194;3.800;2023-11-19T05:59:48;43.83;;;5.68;;
22778;SDS011;11556;51.194;3.800;2023-11-19T06:02:14;47.20;;;5.93;;
22778;SDS011;11556;51.194;3.800;2023-11-19T06:04:40;45.38;;;5.63;;
22778;SDS011;11556;51.194;3.800;2023-11-19T06:07:09;39.33;;;6.07;;
22778;SDS011;11556;51.194;3.800;2023-11-19T06:09:34;36.70;;;5.00;;
22778;SDS011;11556;51.194;3.800;2023-11-19T06:12:00;43.83;;;6.00;;
22778;SDS011;11556;51.194;3.800;2023-11-19T06:14:27;51.97;;;6.30;;
22778;SDS011;11556;51.194;3.800;2023-11-19T06:16:53;44.58;;;5.53;;
22778;SDS011;11556;51.194;3.800;2023-11-19T06:19:18;37.20;;;4.53;;
22778;SDS011;11556;51.194;3.800;2023-11-19T06:21:44;46.88;;;6.53;;
22778;SDS011;11556;51.194;3.800;2023-11-19T06:24:09;42.92;;;5.43;;
22778;SDS011;11556;51.194;3.800;2023-11-19T06:26:35;32.83;;;4.70;;
22778;SDS011;11556;51.194;3.800;2023-11-19T06:29:00;39.78;;;5.40;;
22778;SDS011;11556;51.194;3.800;2023-11-19T06:31:26;40.97;;;5.05;;
22778;SDS011;11556;51.194;3.800;2023-11-19T06:33:52;39.03;;;5.30;;
22778;SDS011;11556;51.194;3.800;2023-11-19T06:36:18;28.85;;;4.55;;
22778;SDS011;11556;51.194;3.800;2023-11-19T06:38:43;49.92;;;6.00;;
22778;SDS011;11556;51.194;3.800;2023-11-19T06:41:09;43.05;;;5.65;;
22778;SDS011;11556;51.194;3.800;2023-11-19T06:43:35;33.30;;;5.30;;
22778;SDS011;11556;51.194;3.800;2023-11-19T06:46:01;38.50;;;5.45;;
22778;SDS011;11556;51.194;3.800;2023-11-19T06:48:27;42.75;;;5.50;;
22778;SDS011;11556;51.194;3.800;2023-11-19T06:50:53;39.35;;;5.28;;
22778;SDS011;11556;51.194;3.800;2023-11-19T06:53:18;36.80;;;4.55;;
22778;SDS011;11556;51.194;3.800;2023-11-19T06:55:44;47.08;;;5.63;;
22778;SDS011;11556;51.194;3.800;2023-11-19T06:58:10;39.53;;;5.78;;
22778;SDS011;11556;51.194;3.800;2023-11-19T07:00:37;46.00;;;5.60;;
22778;SDS011;11556;51.194;3.800;2023-11-19T07:03:02;42.90;;;5.28;;
22778;SDS011;11556;51.194;3.800;2023-11-19T07:05:28;41.70;;;5.70;;
22778;SDS011;11556;51.194;3.800;2023-11-19T07:07:55;57.45;;;15.40;;
22778;SDS011;11556;51.194;3.800;2023-11-19T07:10:20;45.15;;;9.13;;
22778;SDS011;11556;51.194;3.800;2023-11-19T07:12:46;48.20;;;6.55;;
22778;SDS011;11556;51.194;3.800;2023-11-19T07:15:12;44.38;;;5.95;;
22778;SDS011;11556;51.194;3.800;2023-11-19T07:17:39;36.55;;;6.10;;
22778;SDS011;11556;51.194;3.800;2023-11-19T07:20:08;43.45;;;5.60;;
22778;SDS011;11556;51.194;3.800;2023-11-19T07:22:38;42.53;;;5.82;;
22778;SDS011;11556;51.194;3.800;2023-11-19T07:25:04;47.22;;;5.93;;
22778;SDS011;11556;51.194;3.800;2023-11-19T07:27:29;42.20;;;5.53;;
22778;SDS011;11556;51.194;3.800;2023-11-19T07:29:55;43.88;;;5.43;;
22778;SDS011;11556;51.194;3.800;2023-11-19T07:32:21;45.95;;;6.18;;
22778;SDS011;11556;51.194;3.800;2023-11-19T07:34:46;46.85;;;5.32;;
22778;SDS011;11556;51.194;3.800;2023-11-19T07:37:12;34.35;;;5.38;;
22778;SDS011;11556;51.194;3.800;2023-11-19T07:39:37;49.67;;;6.20;;
22778;SDS011;11556;51.194;3.800;2023-11-19T07:42:06;39.85;;;5.80;;
22778;SDS011;11556;51.194;3.800;2023-11-19T07:44:31;42.63;;;5.63;;
22778;SDS011;11556;51.194;3.800;2023-11-19T07:46:57;38.15;;;5.57;;
22778;SDS011;11556;51.194;3.800;2023-11-19T07:49:23;39.72;;;5.93;;
22778;SDS011;11556;51.194;3.800;2023-11-19T07:51:49;47.22;;;6.68;;
22778;SDS011;11556;51.194;3.800;2023-11-19T07:54:14;41.20;;;5.43;;
22778;SDS011;11556;51.194;3.800;2023-11-19T07:56:40;41.30;;;7.15;;
22778;SDS011;11556;51.194;3.800;2023-11-19T07:59:06;42.00;;;5.88;;
22778;SDS011;11556;51.194;3.800;2023-11-19T08:01:31;42.53;;;7.35;;
22778;SDS011;11556;51.194;3.800;2023-11-19T08:03:57;51.70;;;6.60;;
22778;SDS011;11556;51.194;3.800;2023-11-19T08:06:23;43.50;;;6.95;;
22778;SDS011;11556;51.194;3.800;2023-11-19T08:08:49;44.78;;;7.10;;
22778;SDS011;11556;51.194;3.800;2023-11-19T08:11:15;43.55;;;6.07;;
22778;SDS011;11556;51.194;3.800;2023-11-19T08:13:41;40.28;;;6.90;;
22778;SDS011;11556;51.194;3.800;2023-11-19T08:16:07;40.00;;;6.57;;
22778;SDS011;11556;51.194;3.800;2023-11-19T08:18:32;31.80;;;6.10;;
22778;SDS011;11556;51.194;3.800;2023-11-19T08:20:58;34.10;;;5.53;;
22778;SDS011;11556;51.194;3.800;2023-11-19T08:23:25;48.05;;;6.78;;
22778;SDS011;11556;51.194;3.800;2023-11-19T08:25:51;38.63;;;6.65;;
22778;SDS011;11556;51.194;3.800;2023-11-19T08:28:17;36.05;;;5.85;;
22778;SDS011;11556;51.194;3.800;2023-11-19T08:30:43;42.80;;;6.70;;
22778;SDS011;11556;51.194;3.800;2023-11-19T08:33:09;42.15;;;5.28;;
22778;SDS011;11556;51.194;3.800;2023-11-19T08:35:35;40.17;;;5.88;;
22778;SDS011;11556;51.194;3.800;2023-11-19T08:38:00;40.72;;;6.10;;
22778;SDS011;11556;51.194;3.800;2023-11-19T08:40:26;35.08;;;6.25;;
22778;SDS011;11556;51.194;3.800;2023-11-19T08:42:52;33.60;;;5.95;;
22778;SDS011;11556;51.194;3.800;2023-11-19T08:45:18;39.33;;;5.25;;
22778;SDS011;11556;51.194;3.800;2023-11-19T08:47:44;36.28;;;5.50;;
22778;SDS011;11556;51.194;3.800;2023-11-19T08:50:10;34.67;;;5.50;;
22778;SDS011;11556;51.194;3.800;2023-11-19T08:52:36;38.05;;;5.22;;
22778;SDS011;11556;51.194;3.800;2023-11-19T08:55:02;33.10;;;5.00;;
22778;SDS011;11556;51.194;3.800;2023-11-19T08:57:28;28.90;;;4.68;;
22778;SDS011;11556;51.194;3.800;2023-11-19T08:59:53;27.23;;;4.50;;
22778;SDS011;11556;51.194;3.800;2023-11-19T09:02:19;38.72;;;5.32;;
22778;SDS011;11556;51.194;3.800;2023-11-19T09:04:45;35.13;;;6.13;;
22778;SDS011;11556;51.194;3.800;2023-11-19T09:07:10;40.60;;;6.10;;
22778;SDS011;11556;51.194;3.800;2023-11-19T09:09:36;37.35;;;6.00;;
22778;SDS011;11556;51.194;3.800;2023-11-19T09:12:02;35.42;;;5.18;;
22778;SDS011;11556;51.194;3.800;2023-11-19T09:14:32;46.00;;;6.03;;
22778;SDS011;11556;51.194;3.800;2023-11-19T09:16:58;44.03;;;6.15;;
22778;SDS011;11556;51.194;3.800;2023-11-19T09:19:24;36.22;;;5.57;;
22778;SDS011;11556;51.194;3.800;2023-11-19T09:21:51;40.63;;;5.18;;
22778;SDS011;11556;51.194;3.800;2023-11-19T09:24:18;35.30;;;5.65;;
22778;SDS011;11556;51.194;3.800;2023-11-19T09:26:43;37.83;;;5.18;;
22778;SDS011;11556;51.194;3.800;2023-11-19T09:29:09;34.13;;;5.38;;
22778;SDS011;11556;51.194;3.800;2023-11-19T09:31:37;27.30;;;4.70;;
22778;SDS011;11556;51.194;3.800;2023-11-19T09:34:03;36.90;;;5.43;;
22778;SDS011;11556;51.194;3.800;2023-11-19T09:36:29;38.53;;;6.53;;
22778;SDS011;11556;51.194;3.800;2023-11-19T09:38:55;36.63;;;6.13;;
22778;SDS011;11556;51.194;3.800;2023-11-19T09:41:20;31.00;;;5.10;;
22778;SDS011;11556;51.194;3.800;2023-11-19T09:43:46;27.13;;;5.75;;
22778;SDS011;11556;51.194;3.800;2023-11-19T09:46:13;29.42;;;5.40;;
22778;SDS011;11556;51.194;3.800;2023-11-19T09:48:40;32.78;;;4.57;;
22778;SDS011;11556;51.194;3.800;2023-11-19T09:51:07;37.25;;;7.32;;
22778;SDS011;11556;51.194;3.800;2023-11-19T09:53:34;32.40;;;6.38;;
22778;SDS011;11556;51.194;3.800;2023-11-19T09:56:01;33.05;;;5.10;;
22778;SDS011;11556;51.194;3.800;2023-11-19T09:58:31;38.33;;;5.93;;
22778;SDS011;11556;51.194;3.800;2023-11-19T10:01:00;31.50;;;5.78;;
22778;SDS011;11556;51.194;3.800;2023-11-19T10:03:32;35.85;;;5.75;;
22778;SDS011;11556;51.194;3.800;2023-11-19T10:06:04;29.98;;;4.88;;
22778;SDS011;11556;51.194;3.800;2023-11-19T10:08:32;31.00;;;5.30;;
22778;SDS011;11556;51.194;3.800;2023-11-19T10:10:58;36.90;;;5.55;;
22778;SDS011;11556;51.194;3.800;2023-11-19T10:13:27;39.63;;;6.07;;
22778;SDS011;11556;51.194;3.800;2023-11-19T10:15:55;41.92;;;6.20;;
22778;SDS011;11556;51.194;3.800;2023-11-19T10:18:25;38.25;;;5.75;;
22778;SDS011;11556;51.194;3.800;2023-11-19T10:20:51;35.80;;;5.25;;
22778;SDS011;11556;51.194;3.800;2023-11-19T10:23:18;39.83;;;5.75;;
22778;SDS011;11556;51.194;3.800;2023-11-19T10:25:43;35.97;;;5.35;;
22778;SDS011;11556;51.194;3.800;2023-11-19T10:28:10;41.03;;;6.65;;
22778;SDS011;11556;51.194;3.800;2023-11-19T10:30:36;36.20;;;6.70;;
22778;SDS011;11556;51.194;3.800;2023-11-19T10:33:12;42.05;;;6.88;;
22778;SDS011;11556;51.194;3.800;2023-11-19T10:38:18;31.55;;;6.10;;
22778;SDS011;11556;51.194;3.800;2023-11-19T10:40:44;37.00;;;7.32;;
22778;SDS011;11556;51.194;3.800;2023-11-19T10:43:10;29.15;;;4.97;;
22778;SDS011;11556;51.194;3.800;2023-11-19T10:45:36;33.22;;;5.85;;
22778;SDS011;11556;51.194;3.800;2023-11-19T10:48:04;31.20;;;6.57;;
22778;SDS011;11556;51.194;3.800;2023-11-19T10:50:34;23.25;;;4.47;;
22778;SDS011;11556;51.194;3.800;2023-11-19T10:53:01;29.70;;;5.30;;
22778;SDS011;11556;51.194;3.800;2023-11-19T10:55:29;30.38;;;5.25;;
22778;SDS011;11556;51.194;3.800;2023-11-19T10:58:00;30.77;;;4.88;;
22778;SDS011;11556;51.194;3.800;2023-11-19T11:00:29;29.92;;;4.47;;
22778;SDS011;11556;51.194;3.800;2023-11-19T11:03:17;31.88;;;6.00;;
22778;SDS011;11556;51.194;3.800;2023-11-19T11:05:47;25.98;;;4.88;;
22778;SDS011;11556;51.194;3.800;2023-11-19T11:08:13;27.77;;;4.95;;
22778;SDS011;11556;51.194;3.800;2023-11-19T11:10:42;32.17;;;4.90;;
22778;SDS011;11556;51.194;3.800;2023-11-19T11:13:09;28.58;;;5.00;;
22778;SDS011;11556;51.194;3.800;2023-11-19T11:15:37;31.90;;;5.47;;
22778;SDS011;11556;51.194;3.800;2023-11-19T11:18:03;35.22;;;5.57;;
22778;SDS011;11556;51.194;3.800;2023-11-19T11:20:33;28.17;;;4.57;;
22778;SDS011;11556;51.194;3.800;2023-11-19T11:25:37;30.17;;;4.88;;
22778;SDS011;11556;51.194;3.800;2023-11-19T11:39:33;31.25;;;5.60;;
22778;SDS011;11556;51.194;3.800;2023-11-19T11:45:00;32.38;;;5.22;;
22778;SDS011;11556;51.194;3.800;2023-11-19T11:47:26;37.83;;;5.32;;
22778;SDS011;11556;51.194;3.800;2023-11-19T11:50:12;47.28;;;9.05;;
22778;SDS011;11556;51.194;3.800;2023-11-19T11:55:23;35.97;;;5.70;;
22778;SDS011;11556;51.194;3.800;2023-11-19T11:57:49;30.58;;;5.10;;
22778;SDS011;11556;51.194;3.800;2023-11-19T12:02:54;32.45;;;5.47;;
22778;SDS011;11556;51.194;3.800;2023-11-19T12:05:21;38.45;;;5.53;;
22778;SDS011;11556;51.194;3.800;2023-11-19T12:10:33;32.15;;;4.95;;
22778;SDS011;11556;51.194;3.800;2023-11-19T12:13:06;32.43;;;5.63;;
22778;SDS011;11556;51.194;3.800;2023-11-19T12:15:33;27.08;;;5.18;;
22778;SDS011;11556;51.194;3.800;2023-11-19T12:18:30;27.20;;;5.15;;
22778;SDS011;11556;51.194;3.800;2023-11-19T12:20:57;29.88;;;4.55;;
22778;SDS011;11556;51.194;3.800;2023-11-19T12:23:30;33.58;;;5.10;;
22778;SDS011;11556;51.194;3.800;2023-11-19T12:25:56;28.00;;;4.60;;
22778;SDS011;11556;51.194;3.800;2023-11-19T12:28:23;26.50;;;4.70;;
22778;SDS011;11556;51.194;3.800;2023-11-19T12:30:51;28.52;;;4.20;;
22778;SDS011;11556;51.194;3.800;2023-11-19T12:33:18;41.97;;;7.78;;
22778;SDS011;11556;51.194;3.800;2023-11-19T12:35:45;35.20;;;5.40;;
22778;SDS011;11556;51.194;3.800;2023-11-19T12:38:21;34.05;;;5.80;;
22778;SDS011;11556;51.194;3.800;2023-11-19T12:41:08;33.28;;;5.72;;
22778;SDS011;11556;51.194;3.800;2023-11-19T12:43:38;32.20;;;5.53;;
22778;SDS011;11556;51.194;3.800;2023-11-19T12:46:23;37.25;;;5.03;;
22778;SDS011;11556;51.194;3.800;2023-11-19T12:48:49;34.55;;;5.90;;
22778;SDS011;11556;51.194;3.800;2023-11-19T12:51:16;35.88;;;4.63;;
22778;SDS011;11556;51.194;3.800;2023-11-19T12:56:17;39.05;;;4.78;;
22778;SDS011;11556;51.194;3.800;2023-11-19T12:58:43;26.05;;;4.18;;
22778;SDS011;11556;51.194;3.800;2023-11-19T13:01:09;26.40;;;4.45;;
22778;SDS011;11556;51.194;3.800;2023-11-19T13:03:36;27.00;;;4.55;;
22778;SDS011;11556;51.194;3.800;2023-11-19T13:08:51;29.63;;;5.15;;
22778;SDS011;11556;51.194;3.800;2023-11-19T13:11:32;26.02;;;3.88;;
22778;SDS011;11556;51.194;3.800;2023-11-19T13:14:00;21.65;;;3.92;;
22778;SDS011;11556;51.194;3.800;2023-11-19T13:16:28;25.80;;;4.63;;
22778;SDS011;11556;51.194;3.800;2023-11-19T13:18:54;25.95;;;4.80;;
22778;SDS011;11556;51.194;3.800;2023-11-19T13:21:20;26.67;;;4.55;;
22778;SDS011;11556;51.194;3.800;2023-11-19T13:23:45;31.58;;;4.63;;
22778;SDS011;11556;51.194;3.800;2023-11-19T13:26:11;27.23;;;4.00;;
22778;SDS011;11556;51.194;3.800;2023-11-19T13:28:38;35.60;;;4.32;;
22778;SDS011;11556;51.194;3.800;2023-11-19T13:31:04;30.63;;;4.97;;
22778;SDS011;11556;51.194;3.800;2023-11-19T13:33:30;29.05;;;4.93;;
22778;SDS011;11556;51.194;3.800;2023-11-19T13:35:55;29.88;;;4.65;;
22778;SDS011;11556;51.194;3.800;2023-11-19T13:38:22;28.25;;;5.15;;
22778;SDS011;11556;51.194;3.800;2023-11-19T13:40:50;34.00;;;5.38;;
22778;SDS011;11556;51.194;3.800;2023-11-19T13:43:16;35.80;;;5.15;;
22778;SDS011;11556;51.194;3.800;2023-11-19T13:45:42;34.38;;;4.97;;
22778;SDS011;11556;51.194;3.800;2023-11-19T13:48:07;35.30;;;5.65;;
22778;SDS011;11556;51.194;3.800;2023-11-19T13:50:35;43.45;;;5.55;;
22778;SDS011;11556;51.194;3.800;2023-11-19T13:53:01;34.50;;;4.97;;
22778;SDS011;11556;51.194;3.800;2023-11-19T13:55:27;41.20;;;5.70;;
22778;SDS011;11556;51.194;3.800;2023-11-19T13:57:52;41.75;;;5.72;;
22778;SDS011;11556;51.194;3.800;2023-11-19T14:00:18;33.70;;;4.72;;
22778;SDS011;11556;51.194;3.800;2023-11-19T14:02:44;29.10;;;4.68;;
22778;SDS011;11556;51.194;3.800;2023-11-19T14:05:13;30.98;;;4.53;;
22778;SDS011;11556;51.194;3.800;2023-11-19T14:07:40;31.67;;;5.60;;
22778;SDS011;11556;51.194;3.800;2023-11-19T14:10:07;31.45;;;5.35;;
22778;SDS011;11556;51.194;3.800;2023-11-19T14:12:36;38.15;;;6.25;;
22778;SDS011;11556;51.194;3.800;2023-11-19T14:15:03;35.80;;;4.75;;
22778;SDS011;11556;51.194;3.800;2023-11-19T14:17:33;36.72;;;5.20;;
22778;SDS011;11556;51.194;3.800;2023-11-19T14:20:01;28.02;;;4.53;;
22778;SDS011;11556;51.194;3.800;2023-11-19T14:22:46;38.92;;;5.63;;
22778;SDS011;11556;51.194;3.800;2023-11-19T14:25:14;32.08;;;5.78;;
22778;SDS011;11556;51.194;3.800;2023-11-19T14:27:40;23.13;;;3.70;;
22778;SDS011;11556;51.194;3.800;2023-11-19T14:30:09;30.92;;;5.10;;
22778;SDS011;11556;51.194;3.800;2023-11-19T14:32:36;28.05;;;3.88;;
22778;SDS011;11556;51.194;3.800;2023-11-19T14:35:03;32.80;;;4.93;;
22778;SDS011;11556;51.194;3.800;2023-11-19T14:37:29;38.17;;;4.63;;
22778;SDS011;11556;51.194;3.800;2023-11-19T14:39:58;34.28;;;4.65;;
22778;SDS011;11556;51.194;3.800;2023-11-19T14:42:24;22.55;;;4.30;;
22778;SDS011;11556;51.194;3.800;2023-11-19T14:44:50;25.17;;;3.97;;
22778;SDS011;11556;51.194;3.800;2023-11-19T14:47:20;19.20;;;3.30;;
22778;SDS011;11556;51.194;3.800;2023-11-19T14:49:46;31.35;;;4.40;;
22778;SDS011;11556;51.194;3.800;2023-11-19T14:52:12;28.58;;;4.30;;
22778;SDS011;11556;51.194;3.800;2023-11-19T14:54:38;30.02;;;4.28;;
22778;SDS011;11556;51.194;3.800;2023-11-19T14:57:04;27.88;;;4.30;;
22778;SDS011;11556;51.194;3.800;2023-11-19T14:59:31;28.67;;;4.75;;
22778;SDS011;11556;51.194;3.800;2023-11-19T15:01:58;33.08;;;4.18;;
22778;SDS011;11556;51.194;3.800;2023-11-19T15:04:25;32.85;;;4.78;;
22778;SDS011;11556;51.194;3.800;2023-11-19T15:06:52;38.70;;;4.65;;
22778;SDS011;11556;51.194;3.800;2023-11-19T15:09:17;29.73;;;4.50;;
22778;SDS011;11556;51.194;3.800;2023-11-19T15:11:46;37.80;;;6.10;;
22778;SDS011;11556;51.194;3.800;2023-11-19T15:14:14;35.25;;;6.03;;